Westlake, Texas
Current Conditions -  °F | °C
As of 9:53 AM on Sunday 21 Dec 2014 (Local Time) from KAFW Reporting Station
Haze Haze  
Wind Chill: 42°   Ceiling: 1800
Heat Index: 47°   Visibility: 3mi
Dew Point: 45°   Wind: 10mph
Humidity: 93%   Direction: 170°S
Pressure: 30.06"   Gusts: NA
Location:  32.996°N, 97.2275°W
Report Text: KAFW 211553Z 17009KT 3SM BR FEW007 SCT011 OVC018 08/07 A3006 RMK AO2 SLP184 T00830072 $
Loading
Personal Weather Stations






























Interactive Weather Map New forecast layout! Learn more

10-Day Weather Forecast

Advertisements
Track Severe Weather on mobile